This is the latest recevied weather packets stored in our database for station/object SV9TNF-56. If no packets are shown the sender has not sent any weather packets the latest 10 day(s).
| Time | Temp. | Humidity | Pressure | Rain* | Wind** | Luminosity | Snow |
|---|---|---|---|---|---|---|---|
| 1787858801 | 26.67° C | 60% | 1018.3 hPa | 0 mm | 13.86 m/s, 103° | - | - |
| 1787858501 | 26.67° C | 59% | 1018.3 hPa | 0 mm | 7.15 m/s, 162° | - | - |
| 1787858200 | 26.67° C | 59% | 1018.3 hPa | 0 mm | 12.96 m/s, 192° | - | - |
| 1787857900 | 26.67° C | 58% | 1018.3 hPa | 0 mm | 7.6 m/s, 149° | - | - |
| 1787857600 | 27.22° C | 58% | 1018 hPa | 0 mm | 10.28 m/s, 132° | - | - |
| 1787857300 | 27.22° C | 56% | 1018.3 hPa | 0 mm | 13.86 m/s, 176° | - | - |
| 1787857000 | 27.22° C | 56% | 1018 hPa | 0 mm | 19.22 m/s, 126° | - | - |
| 1787856700 | 27.22° C | 55% | 1018 hPa | 0 mm | 13.86 m/s, 143° | - | - |
| 1787856400 | 27.78° C | 53% | 1018 hPa | 0 mm | 13.86 m/s, 300° | - | - |
| 1787856100 | 27.78° C | 53% | 1018 hPa | 0 mm | 17.88 m/s, 138° | - | - |
| 1787855800 | 27.78° C | 52% | 1018 hPa | 0 mm | 8.94 m/s, 269° | - | - |
| 1787855500 | 27.78° C | 52% | 1018 hPa | 0 mm | 12.07 m/s, 192° | - | - |
| 1787855199 | 27.78° C | 52% | 1017.6 hPa | 0 mm | 14.75 m/s, 281° | - | - |
| 1787854899 | 27.78° C | 53% | 1018 hPa | 0 mm | 24.14 m/s, 102° | - | - |
| 1787854599 | 27.78° C | 52% | 1017.6 hPa | 0 mm | 22.8 m/s, 172° | - | - |
| 1787854299 | 27.78° C | 54% | 1018 hPa | 0 mm | 29.06 m/s, 64° | - | - |
| 1787853999 | 27.78° C | 54% | 1017.6 hPa | 0 mm | 26.82 m/s, 120° | - | - |
| 1787853699 | 27.78° C | 51% | 1018 hPa | 0 mm | 36.66 m/s, 91° | - | - |
| 1787853399 | 28.33° C | 51% | 1017.3 hPa | 0 mm | 33.53 m/s, 102° | - | - |
| 1787853099 | 28.33° C | 48% | 1016.9 hPa | 0 mm | 43.81 m/s, 108° | - | - |
| 1787852798 | 28.33° C | 48% | 1017.3 hPa | 0 mm | 42.02 m/s, 101° | - | - |
| 1787852498 | 28.33° C | 47% | 1017.3 hPa | 0 mm | 41.57 m/s, 126° | - | - |
| 1787852198 | 28.33° C | 46% | 1017.6 hPa | 0 mm | 42.92 m/s, 103° | - | - |
| 1787851898 | 27.78° C | 50% | 1017.3 hPa | 0 mm | 46.05 m/s, 77° | - | - |
| 1787851598 | 27.78° C | 50% | 1017.6 hPa | 0 mm | 43.81 m/s, 76° | - | - |
* Rain latest hour (hover to see other rain measurements)
** Current wind speed in m/s (hover to see current wind gust speed)